Time,TemperatureF,DewpointF,PressureIn,WindDirection,WindDirectionDegrees,WindSpeedMPH,WindSpeedGustMPH,Humidity,HourlyPrecipIn,Conditions,Clouds,dailyrainin,SoftwareType,DateUTC
2017-03-29 01:59:00,53.0,50.0,29.97,ENE,68,2.0,9.0,88,-99.99,,,-99.99,,2017-03-29 06:59:00,
2017-03-29 02:16:00,53.0,50.0,29.95,NE,47,6.0,15.0,88,-99.99,,,-99.99,,2017-03-29 07:16:00,
2017-03-29 03:07:00,52.0,49.0,29.93,North,8,4.0,14.0,91,-99.99,,,-99.99,,2017-03-29 08:07:00,
2017-03-29 04:47:00,50.0,48.0,29.95,ENE,64,1.0,6.0,94,-99.99,,,-99.99,,2017-03-29 09:47:00,
2017-03-29 05:15:00,50.0,49.0,29.93,North,-9999,-999.9,-999.0,95,-99.99,,,-99.99,,2017-03-29 10:15:00,
2017-03-29 05:27:00,50.0,49.0,29.95,North,4,1.0,3.0,96,-99.99,,,-99.99,,2017-03-29 10:27:00,
2017-03-29 07:37:00,49.0,48.0,29.91,NNW,340,3.0,10.0,96,-99.99,,,-99.99,,2017-03-29 12:37:00,
2017-03-29 07:58:00,49.0,48.0,29.91,NE,34,2.0,11.0,96,-99.99,,,-99.99,,2017-03-29 12:58:00,
2017-03-29 08:16:00,49.0,48.0,29.90,East,101,2.0,11.0,96,-99.99,,,-99.99,,2017-03-29 13:16:00,
2017-03-29 08:26:00,49.0,48.0,29.89,East,89,3.0,10.0,96,-99.99,,,-99.99,,2017-03-29 13:26:00,
2017-03-29 08:58:00,49.0,48.0,29.90,NE,44,4.0,13.0,96,-99.99,,,-99.99,,2017-03-29 13:58:00,
2017-03-29 09:58:00,49.0,48.0,29.85,North,349,4.0,13.0,96,-99.99,,,-99.99,,2017-03-29 14:58:00,
2017-03-29 11:26:00,51.0,50.0,29.80,North,3,2.0,9.0,95,-99.99,,,-99.99,,2017-03-29 16:26:00,
2017-03-29 11:59:00,52.0,50.0,29.81,North,10,3.0,13.0,94,-99.99,,,-99.99,,2017-03-29 16:59:00,
2017-03-29 12:26:00,53.0,51.0,29.80,NNW,339,3.0,11.0,94,-99.99,,,-99.99,,2017-03-29 17:26:00,
2017-03-29 13:26:00,55.0,52.0,29.76,North,359,5.0,14.0,91,-99.99,,,-99.99,,2017-03-29 18:26:00,
2017-03-29 14:07:00,59.0,55.0,29.73,NE,41,5.0,12.0,88,-99.99,,,-99.99,,2017-03-29 19:07:00,
2017-03-29 14:59:00,59.0,55.0,29.75,NNE,30,2.0,8.0,86,-99.99,,,-99.99,,2017-03-29 19:59:00,
2017-03-29 15:16:00,59.0,55.0,29.74,East,79,4.0,8.0,87,-99.99,,,-99.99,,2017-03-29 20:16:00,
2017-03-29 16:07:00,62.0,57.0,29.71,ESE,115,3.0,13.0,83,-99.99,,,-99.99,,2017-03-29 21:07:00,
2017-03-29 16:59:00,62.0,57.0,29.69,NE,46,2.0,9.0,84,-99.99,,,-99.99,,2017-03-29 21:59:00,
2017-03-29 17:16:00,61.0,56.0,29.68,NE,51,3.0,11.0,85,-99.99,,,-99.99,,2017-03-29 22:16:00,
2017-03-29 17:59:00,63.0,58.0,29.67,NW,310,3.0,8.0,83,-99.99,,,-99.99,,2017-03-29 22:59:00,
2017-03-29 18:16:00,62.0,57.0,29.67,North,349,4.0,10.0,85,-99.99,,,-99.99,,2017-03-29 23:16:00,